East Akron, Ohio
Current Conditions -  °F | °C
As of 10:54 PM on Wednesday 22 Oct 2014 (Local Time) from KAKR Reporting Station
Broken Clouds Broken Clouds  
Wind Chill: 47°   Ceiling: 4400
Heat Index: 47°   Visibility: 10mi
Dew Point: 42°   Wind: 0mph
Humidity: 83%   Direction: NA
Pressure: 30.22"   Gusts: NA
Location:  41.0762°N, 81.4631°W
Report Text: KAKR 230254Z AUTO 00000KT 10SM BKN044 08/06 A3022 RMK AO2 SLP236 T00830056 55001
Loading
Personal Weather Stations






























Interactive Weather Map
Tropical Storm Tracking
New forecast layout! Learn more

10-Day Weather Forecast

Advertisements
Track Severe Weather on mobile